Time;durP1;ratioP1;P1;durP2;ratioP2;P2;SDS_P1;SDS_P2;PMS_P1;PMS_P2;Temp;Humidity;BMP_temperature;BMP_pressure;BME280_temperature;BME280_humidity;BME280_pressure;Samples;Min_cycle;Max_cycle;Signal;HPM_P1;HPM_P2
2022/01/23 00:00:41;;;;;;;11.27;10.27;;;;;;;4.71;100.00;102154.47;5078736;28;20219;-76
2022/01/23 00:03:11;;;;;;;18.40;10.90;;;;;;;4.63;100.00;102171.44;5079320;28;20234;-75
2022/01/23 00:05:42;;;;;;;12.40;10.13;;;;;;;4.55;100.00;102167.72;5077840;28;20226;-76
2022/01/23 00:08:09;;;;;;;12.97;9.70;;;;;;;4.43;100.00;102172.47;5082771;28;20591;-77
2022/01/23 00:10:37;;;;;;;10.63;9.50;;;;;;;4.43;100.00;102165.59;5083048;28;20354;-74
2022/01/23 00:13:10;;;;;;;15.40;10.10;;;;;;;4.44;100.00;102159.63;5083486;28;20622;-77
2022/01/23 00:18:22;;;;;;;10.90;9.13;;;;;;;4.38;100.00;102157.69;5082935;28;20227;-77
2022/01/23 00:20:49;;;;;;;14.37;8.50;;;;;;;4.41;100.00;102156.91;5082992;28;20232;-76
2022/01/23 00:23:28;;;;;;;15.30;8.67;;;;;;;4.36;100.00;102142.94;5082844;28;20743;-76
2022/01/23 00:31:26;;;;;;;11.87;8.27;;;;;;;4.31;100.00;102113.47;5083307;28;20226;-75
2022/01/23 00:33:54;;;;;;;10.10;8.67;;;;;;;4.24;100.00;102102.06;5082887;28;20239;-76
2022/01/23 00:36:20;;;;;;;13.17;9.73;;;;;;;4.26;100.00;102095.25;5082751;28;20686;-78
2022/01/23 00:38:47;;;;;;;15.17;9.50;;;;;;;4.25;100.00;102090.00;5082796;28;20505;-79
2022/01/23 00:41:15;;;;;;;11.20;8.13;;;;;;;4.16;100.00;102088.88;5083135;28;20200;-76
2022/01/23 00:43:43;;;;;;;12.67;8.13;;;;;;;4.16;100.00;102077.63;5083136;28;20208;-78
2022/01/23 00:46:10;;;;;;;10.30;8.27;;;;;;;4.10;100.00;102072.25;5083033;28;20257;-75
2022/01/23 00:48:40;;;;;;;12.10;8.70;;;;;;;4.22;100.00;102072.66;5082888;28;20224;-75
2022/01/23 00:51:07;;;;;;;13.13;8.87;;;;;;;4.34;100.00;102057.59;5083332;28;20200;-78
2022/01/23 00:53:33;;;;;;;10.53;8.20;;;;;;;4.21;100.00;102070.06;5084037;28;20246;-77
2022/01/23 00:56:00;;;;;;;9.30;6.73;;;;;;;4.12;100.00;102081.84;5084258;28;20724;-78
2022/01/23 00:58:27;;;;;;;9.57;6.53;;;;;;;4.12;100.00;102089.59;5085757;28;20295;-77
2022/01/23 01:00:54;;;;;;;7.67;6.93;;;;;;;4.09;100.00;102083.44;5084757;28;20235;-77
2022/01/23 01:03:20;;;;;;;8.00;7.30;;;;;;;4.12;100.00;102078.38;5085278;28;20200;-76
2022/01/23 01:05:46;;;;;;;10.90;8.43;;;;;;;4.11;100.00;102086.97;5085348;28;20250;-74
2022/01/23 01:08:13;;;;;;;9.47;8.57;;;;;;;4.19;100.00;102082.94;5085604;28;20210;-76
2022/01/23 01:10:46;;;;;;;9.67;8.13;;;;;;;4.15;100.00;102081.06;5085449;28;20200;-77
2022/01/23 01:13:14;;;;;;;11.30;8.87;;;;;;;4.14;100.00;102085.38;5085522;28;20213;-78
2022/01/23 01:15:58;;;;;;;9.83;8.83;;;;;;;4.20;100.00;102087.25;5085406;28;20263;-77
2022/01/23 01:32:08;;;;;;;9.70;8.03;;;;;;;4.30;100.00;102104.84;5085486;28;20287;-76
2022/01/23 01:34:39;;;;;;;9.43;8.53;;;;;;;4.36;100.00;102102.47;5085549;28;20204;-76
2022/01/23 01:37:08;;;;;;;12.10;8.57;;;;;;;4.43;100.00;102108.72;5084893;28;20251;-78
2022/01/23 01:39:34;;;;;;;9.80;8.80;;;;;;;4.42;100.00;102117.31;5084526;28;20286;-75
2022/01/23 01:42:01;;;;;;;10.07;7.73;;;;;;;4.21;100.00;102114.00;5085256;28;20249;-76
2022/01/23 01:44:27;;;;;;;11.13;9.53;;;;;;;4.23;100.00;102114.94;5085009;28;20200;-78
2022/01/23 01:46:54;;;;;;;10.23;8.90;;;;;;;4.22;100.00;102123.50;5084784;28;20254;-75
2022/01/23 01:49:28;;;;;;;10.70;9.60;;;;;;;4.23;100.00;102115.81;5084588;28;20253;-76
2022/01/23 01:51:55;;;;;;;10.93;9.83;;;;;;;4.18;100.00;102110.47;5084626;28;20204;-77
2022/01/23 01:54:24;;;;;;;15.03;9.67;;;;;;;4.17;100.00;102115.59;5084918;28;20590;-75
2022/01/23 01:56:53;;;;;;;11.83;10.63;;;;;;;4.20;100.00;102118.25;5084857;28;20200;-78
2022/01/23 01:59:46;;;;;;;10.60;9.47;;;;;;;4.29;100.00;102121.19;5084204;28;20277;-77
2022/01/23 02:10:28;;;;;;;11.77;10.43;;;;;;;4.09;100.00;102130.84;5083965;28;20226;-75
2022/01/23 02:13:04;;;;;;;12.47;11.17;;;;;;;3.97;100.00;102135.56;5084239;28;20678;-78
2022/01/23 02:24:02;;;;;;;20.20;12.03;;;;;;;3.83;100.00;102108.38;5084066;28;20630;-77
2022/01/23 02:51:28;;;;;;;11.23;9.97;;;;;;;3.50;100.00;102085.66;5083365;28;20264;-78
2022/01/23 02:54:18;;;;;;;15.43;10.90;;;;;;;3.49;100.00;102077.03;5083605;28;20223;-76
2022/01/23 02:56:49;;;;;;;11.57;10.47;;;;;;;3.47;100.00;102076.13;5083510;28;20208;-75
2022/01/23 02:59:22;;;;;;;11.50;10.37;;;;;;;3.47;100.00;102085.53;5082794;28;20628;-75
2022/01/23 03:02:02;;;;;;;11.63;10.37;;;;;;;3.49;100.00;102097.69;5083158;28;20709;-75
2022/01/23 03:04:29;;;;;;;12.10;9.57;;;;;;;3.41;100.00;102099.13;5083101;28;20732;-78
2022/01/23 03:07:10;;;;;;;10.87;9.20;;;;;;;3.36;100.00;102106.69;5082714;28;20212;-76
2022/01/23 03:09:54;;;;;;;11.60;9.43;;;;;;;3.34;100.00;102099.69;5082547;28;20223;-78
2022/01/23 03:15:12;;;;;;;11.50;8.83;;;;;;;3.41;100.00;102095.63;5082963;28;20697;-76
2022/01/23 03:26:13;;;;;;;9.43;8.30;;;;;;;3.44;100.00;102101.81;5083099;28;20766;-76
2022/01/23 03:29:01;;;;;;;12.50;8.40;;;;;;;3.48;100.00;102100.22;5082292;28;20220;-76
2022/01/23 03:31:30;;;;;;;9.20;8.30;;;;;;;3.50;100.00;102102.03;5082501;28;20223;-76
2022/01/23 03:33:57;;;;;;;9.67;8.00;;;;;;;3.52;100.00;102102.97;5082676;28;20211;-78
2022/01/23 03:36:23;;;;;;;9.50;8.03;;;;;;;3.56;100.00;102099.66;5082710;28;20298;-76
2022/01/23 03:38:50;;;;;;;8.07;7.27;;;;;;;3.55;100.00;102103.09;5081912;28;20227;-76
2022/01/23 03:41:18;;;;;;;9.93;7.67;;;;;;;3.61;100.00;102098.94;5081159;28;20224;-76
2022/01/23 03:43:45;;;;;;;8.03;6.90;;;;;;;3.64;100.00;102105.09;5082619;28;20204;-77
2022/01/23 03:46:33;;;;;;;7.40;6.40;;;;;;;3.64;100.00;102110.28;5082541;28;20231;-78
2022/01/23 03:51:44;;;;;;;6.60;6.00;;;;;;;3.64;100.00;102120.59;5082022;28;20209;-78
2022/01/23 03:54:10;;;;;;;7.90;6.00;;;;;;;3.61;100.00;102125.69;5082217;28;21583;-76
2022/01/23 03:56:38;;;;;;;6.07;5.47;;;;;;;3.64;100.00;102123.19;5082139;28;20230;-75
2022/01/23 03:59:04;;;;;;;6.67;5.80;;;;;;;3.61;100.00;102120.50;5082005;28;20717;-74
2022/01/23 04:01:31;;;;;;;6.77;5.67;;;;;;;3.67;100.00;102115.56;5082122;28;20277;-76
2022/01/23 04:04:01;;;;;;;6.77;5.40;;;;;;;3.67;100.00;102122.44;5081773;28;20249;-75
2022/01/23 04:06:28;;;;;;;6.43;4.87;;;;;;;3.62;100.00;102129.13;5082209;28;20327;-76
2022/01/23 04:08:54;;;;;;;6.70;5.77;;;;;;;3.61;100.00;102130.84;5081711;28;20257;-74
2022/01/23 04:11:20;;;;;;;5.60;5.10;;;;;;;3.62;100.00;102135.16;5082031;28;20200;-76
2022/01/23 04:13:53;;;;;;;6.77;5.13;;;;;;;3.65;100.00;102143.03;5081722;28;20747;-77
2022/01/23 04:19:30;;;;;;;5.60;5.07;;;;;;;3.71;100.00;102160.47;5081318;28;20250;-76
2022/01/23 04:45:11;;;;;;;8.73;6.17;;;;;;;3.64;100.00;102171.38;5082200;28;20281;-76
2022/01/23 05:00:48;;;;;;;6.93;6.03;;;;;;;3.70;100.00;102205.19;5085329;28;20705;-78
2022/01/23 05:03:57;;;;;;;8.83;7.93;;;;;;;3.69;100.00;102206.88;5086172;28;20706;-76
2022/01/23 05:06:24;;;;;;;7.77;6.73;;;;;;;3.67;100.00;102210.25;5085568;28;20203;-75
2022/01/23 05:08:51;;;;;;;8.20;7.50;;;;;;;3.70;100.00;102200.00;5085412;28;20721;-76
2022/01/23 05:11:19;;;;;;;8.50;7.67;;;;;;;3.73;100.00;102207.88;5085215;28;20204;-76
2022/01/23 05:13:46;;;;;;;9.03;7.77;;;;;;;3.77;100.00;102213.22;5085560;28;20204;-76
2022/01/23 05:16:13;;;;;;;8.93;8.07;;;;;;;3.83;100.00;102222.03;5085428;28;20212;-74
2022/01/23 05:18:41;;;;;;;8.93;8.13;;;;;;;3.77;100.00;102215.78;5085670;28;20238;-77
2022/01/23 05:21:42;;;;;;;9.57;8.67;;;;;;;3.72;100.00;102227.66;5085078;28;20254;-76
2022/01/23 05:23:57;;;;;;;9.13;8.23;;;;;;;3.74;100.00;102222.53;5085036;28;20204;-77
2022/01/23 05:26:24;;;;;;;9.27;8.43;;;;;;;3.72;100.00;102219.91;5085228;28;20719;-75
2022/01/23 05:28:50;;;;;;;9.80;8.90;;;;;;;3.70;100.00;102224.13;5085463;28;20327;-75
2022/01/23 05:31:16;;;;;;;11.07;9.97;;;;;;;3.62;100.00;102217.78;5085140;28;20207;-76
2022/01/23 05:33:44;;;;;;;11.53;10.40;;;;;;;3.57;100.00;102209.88;5085120;28;20205;-75
2022/01/23 05:36:11;;;;;;;10.50;9.40;;;;;;;3.57;100.00;102190.94;5084861;28;20243;-75
2022/01/23 05:38:37;;;;;;;11.23;10.13;;;;;;;3.55;100.00;102182.25;5085101;28;20219;-76
2022/01/23 05:41:03;;;;;;;10.93;9.80;;;;;;;3.54;100.00;102177.91;5084725;28;20227;-76
2022/01/23 05:43:30;;;;;;;12.20;10.03;;;;;;;3.54;100.00;102175.31;5085155;28;20277;-76
2022/01/23 05:45:56;;;;;;;11.33;10.17;;;;;;;3.60;100.00;102177.25;5084937;28;20823;-73
2022/01/23 05:48:22;;;;;;;11.77;10.57;;;;;;;3.54;100.00;102173.59;5084649;28;21143;-78
2022/01/23 05:50:50;;;;;;;10.40;9.40;;;;;;;3.52;100.00;102172.66;5084544;28;20957;-73
2022/01/23 05:53:17;;;;;;;9.60;8.43;;;;;;;3.57;100.00;102168.56;5084769;28;20204;-75
2022/01/23 05:55:43;;;;;;;10.47;9.00;;;;;;;3.56;100.00;102164.22;5084608;28;20200;-75
2022/01/23 05:58:09;;;;;;;10.50;8.97;;;;;;;3.58;100.00;102165.16;5084534;28;20208;-73
2022/01/23 06:00:36;;;;;;;9.57;8.10;;;;;;;3.60;100.00;102172.97;5084450;28;20269;-76
2022/01/23 06:03:03;;;;;;;12.33;9.40;;;;;;;3.64;100.00;102167.09;5084714;28;20204;-76
2022/01/23 06:05:29;;;;;;;12.63;8.27;;;;;;;3.71;100.00;102170.78;5084014;28;20971;-74
2022/01/23 06:07:57;;;;;;;8.67;7.87;;;;;;;3.66;100.00;102169.72;5084239;28;20257;-76
2022/01/23 06:10:26;;;;;;;8.00;7.20;;;;;;;3.60;100.00;102180.69;5084255;28;20617;-76
2022/01/23 06:12:53;;;;;;;9.03;7.97;;;;;;;3.61;100.00;102169.56;5084739;28;20204;-76
2022/01/23 06:15:20;;;;;;;8.43;7.13;;;;;;;3.65;100.00;102178.28;5083934;28;20686;-76
2022/01/23 06:17:47;;;;;;;6.60;6.00;;;;;;;3.66;100.00;102182.66;5084687;28;20257;-73
2022/01/23 06:20:15;;;;;;;8.37;7.43;;;;;;;3.65;100.00;102181.78;5083452;28;20613;-75
2022/01/23 06:22:43;;;;;;;7.83;7.13;;;;;;;3.68;100.00;102181.00;5084126;28;20315;-76
2022/01/23 06:25:12;;;;;;;7.70;7.03;;;;;;;3.70;100.00;102189.69;5084295;28;20208;-75
2022/01/23 06:27:39;;;;;;;7.37;6.53;;;;;;;3.75;100.00;102195.91;5083977;28;20685;-75
2022/01/23 06:30:07;;;;;;;6.97;6.00;;;;;;;3.69;100.00;102193.97;5083885;28;20802;-74
2022/01/23 06:32:34;;;;;;;8.33;6.20;;;;;;;3.72;100.00;102198.38;5084456;28;20204;-75
2022/01/23 06:35:00;;;;;;;7.17;6.47;;;;;;;3.73;100.00;102207.88;5084163;28;20208;-75
2022/01/23 06:37:26;;;;;;;7.50;6.80;;;;;;;3.71;100.00;102210.41;5083919;28;20261;-74
2022/01/23 06:39:53;;;;;;;9.13;7.30;;;;;;;3.80;100.00;102215.03;5083337;28;20783;-76
2022/01/23 06:42:21;;;;;;;9.43;8.50;;;;;;;3.73;100.00;102218.22;5083527;28;20228;-76
2022/01/23 06:44:47;;;;;;;9.90;8.90;;;;;;;3.69;100.00;102222.38;5084013;28;20261;-75
2022/01/23 06:47:13;;;;;;;12.63;10.47;;;;;;;3.62;100.00;102217.78;5083661;28;20234;-75
2022/01/23 06:49:40;;;;;;;10.70;9.70;;;;;;;3.62;100.00;102211.75;5083375;28;20236;-76
2022/01/23 06:52:07;;;;;;;12.53;9.53;;;;;;;3.64;100.00;102217.84;5083690;28;20208;-75
2022/01/23 06:54:33;;;;;;;10.40;9.27;;;;;;;3.64;100.00;102210.09;5082912;28;20682;-74
2022/01/23 06:56:59;;;;;;;14.07;9.90;;;;;;;3.61;100.00;102209.97;5083750;28;20640;-76
2022/01/23 06:59:27;;;;;;;9.80;8.43;;;;;;;3.56;100.00;102202.06;5083107;28;20721;-76
2022/01/23 07:01:54;;;;;;;11.40;9.47;;;;;;;3.58;100.00;102203.00;5083448;28;20251;-76
2022/01/23 07:04:20;;;;;;;10.70;9.53;;;;;;;3.60;100.00;102197.91;5083615;28;20603;-75
2022/01/23 07:06:46;;;;;;;10.27;8.90;;;;;;;3.63;100.00;102196.31;5083449;28;20384;-77
2022/01/23 07:09:13;;;;;;;10.87;9.17;;;;;;;3.60;100.00;102197.91;5082798;28;20224;-75
2022/01/23 07:11:39;;;;;;;14.13;9.33;;;;;;;3.55;100.00;102188.28;5083177;28;20731;-75
2022/01/23 07:14:05;;;;;;;10.63;9.07;;;;;;;3.53;100.00;102189.94;5083386;28;20635;-76
2022/01/23 07:16:33;;;;;;;9.37;7.77;;;;;;;3.55;100.00;102183.13;5083106;28;20744;-74
2022/01/23 07:18:59;;;;;;;13.00;8.47;;;;;;;3.55;100.00;102182.25;5082896;28;20224;-77
2022/01/23 07:21:26;;;;;;;11.50;7.93;;;;;;;3.57;100.00;102186.63;5082773;28;20232;-75
2022/01/23 07:23:52;;;;;;;9.23;8.27;;;;;;;3.60;100.00;102185.00;5083283;28;20204;-76
2022/01/23 07:26:21;;;;;;;9.53;8.10;;;;;;;3.64;100.00;102184.28;5083552;28;20253;-76
2022/01/23 07:28:48;;;;;;;9.60;8.13;;;;;;;3.70;100.00;102189.69;5083294;28;20220;-76
2022/01/23 07:31:30;;;;;;;9.17;8.20;;;;;;;3.65;100.00;102191.19;5082680;28;20719;-76
2022/01/23 07:33:59;;;;;;;9.27;8.37;;;;;;;3.62;100.00;102191.09;5083049;28;20204;-77
2022/01/23 07:36:25;;;;;;;8.90;7.50;;;;;;;3.58;100.00;102190.09;5083121;28;20678;-76
2022/01/23 07:38:52;;;;;;;9.43;8.33;;;;;;;3.60;100.00;102192.75;5082757;28;20224;-77
2022/01/23 07:41:18;;;;;;;9.83;8.07;;;;;;;3.62;100.00;102194.56;5082479;28;20228;-76
2022/01/23 07:43:46;;;;;;;12.40;7.30;;;;;;;3.57;100.00;102194.38;5083320;28;20200;-76
2022/01/23 07:46:12;;;;;;;13.40;8.13;;;;;;;3.57;100.00;102194.38;5082816;28;20208;-77
2022/01/23 07:48:39;;;;;;;10.80;8.73;;;;;;;3.60;100.00;102188.44;5082678;28;20231;-77
2022/01/23 07:51:06;;;;;;;10.63;8.20;;;;;;;3.68;100.00;102178.41;5082548;28;20200;-75
2022/01/23 07:53:33;;;;;;;14.47;7.73;;;;;;;3.65;100.00;102178.28;5082815;28;20206;-77
2022/01/23 07:55:59;;;;;;;9.80;7.60;;;;;;;3.69;100.00;102182.78;5082418;28;20279;-75
2022/01/23 07:58:25;;;;;;;12.03;8.30;;;;;;;3.69;100.00;102172.44;5082837;28;20846;-77
2022/01/23 08:00:52;;;;;;;10.73;8.50;;;;;;;3.71;100.00;102174.25;5082336;28;20276;-76
2022/01/23 08:03:18;;;;;;;12.90;9.57;;;;;;;3.75;100.00;102185.56;5082644;28;20208;-74
2022/01/23 08:05:44;;;;;;;11.30;10.00;;;;;;;3.80;100.00;102188.31;5082950;28;20257;-77
2022/01/23 08:08:12;;;;;;;12.30;9.80;;;;;;;3.78;100.00;102183.09;5082203;28;20264;-77
2022/01/23 08:10:39;;;;;;;11.57;10.07;;;;;;;3.74;100.00;102187.25;5082150;28;20250;-75
2022/01/23 08:13:06;;;;;;;12.93;9.17;;;;;;;3.76;100.00;102177.88;5082616;28;20200;-78
2022/01/23 08:15:33;;;;;;;11.27;10.17;;;;;;;3.75;100.00;102183.88;5082812;28;20211;-77
2022/01/23 08:18:01;;;;;;;11.07;9.70;;;;;;;3.77;100.00;102182.22;5082416;28;20211;-76
2022/01/23 08:20:28;;;;;;;11.73;9.13;;;;;;;3.81;100.00;102184.94;5081778;28;20232;-74
2022/01/23 08:22:54;;;;;;;10.10;9.00;;;;;;;3.86;100.00;102197.16;5082544;28;20277;-76
2022/01/23 08:25:22;;;;;;;9.13;8.23;;;;;;;3.88;100.00;102207.56;5082331;28;20283;-78
2022/01/23 08:27:48;;;;;;;9.03;7.77;;;;;;;3.85;100.00;102202.31;5083881;28;20205;-76
2022/01/23 08:30:15;;;;;;;10.37;9.30;;;;;;;3.82;100.00;102207.34;5086298;28;20265;-76
2022/01/23 08:32:42;;;;;;;9.27;8.33;;;;;;;3.82;100.00;102208.22;5086834;28;20200;-78
2022/01/23 08:35:09;;;;;;;11.90;8.30;;;;;;;3.89;100.00;102211.91;5086288;28;20204;-75
2022/01/23 08:37:36;;;;;;;10.20;9.20;;;;;;;3.88;100.00;102215.31;5086271;28;20261;-76
2022/01/23 08:40:03;;;;;;;10.17;8.80;;;;;;;3.94;100.00;102218.13;5085610;28;20262;-77
2022/01/23 08:42:32;;;;;;;13.07;8.83;;;;;;;3.94;100.00;102218.13;5086299;28;20239;-75
2022/01/23 08:44:59;;;;;;;10.53;8.57;;;;;;;3.97;100.00;102223.41;5086235;28;20245;-77
2022/01/23 08:47:25;;;;;;;9.60;7.97;;;;;;;3.96;100.00;102221.63;5086139;28;20208;-75
2022/01/23 08:49:51;;;;;;;11.20;8.07;;;;;;;4.01;100.00;102219.25;5085861;28;20269;-78
2022/01/23 08:52:20;;;;;;;18.63;15.50;;;;;;;3.97;100.00;102213.94;5086189;28;20204;-76
2022/01/23 08:54:49;;;;;;;13.55;12.25;;;;;;;3.97;100.00;102213.94;5084154;28;20437;-75
2022/01/23 08:57:16;;;;;;;10.70;9.53;;;;;;;4.03;100.00;102220.19;5085881;28;20212;-77
2022/01/23 08:59:44;;;;;;;12.97;10.80;;;;;;;4.05;100.00;102223.69;5084913;28;20292;-76
2022/01/23 09:02:11;;;;;;;23.60;21.07;;;;;;;4.05;100.00;102224.56;5083358;28;20285;-74
2022/01/23 09:04:38;;;;;;;11.60;10.60;;;;;;;4.08;100.00;102235.00;5085369;28;20211;-77
2022/01/23 09:07:05;;;;;;;10.40;7.17;;;;;;;4.12;100.00;102236.00;5085054;28;20249;-78
2022/01/23 09:09:36;;;;;;;7.83;6.50;;;;;;;4.23;100.00;102228.66;5084524;28;20223;-75
2022/01/23 09:12:07;;;;;;;8.17;7.37;;;;;;;4.14;100.00;102239.53;5086210;28;20730;-74
2022/01/23 09:14:33;;;;;;;6.67;5.97;;;;;;;4.10;100.00;102235.97;5085123;28;20662;-75
2022/01/23 09:17:03;;;;;;;7.77;6.27;;;;;;;4.14;100.00;102234.34;5085151;28;20212;-77
2022/01/23 09:19:29;;;;;;;81.67;56.47;;;;;;;4.18;100.00;102239.72;5084539;28;20293;-77
2022/01/23 09:21:57;;;;;;;15.77;14.37;;;;;;;4.20;100.00;102231.97;5085098;28;20277;-75
2022/01/23 09:24:26;;;;;;;10.63;9.53;;;;;;;4.20;100.00;102244.03;5084721;28;20277;-76
2022/01/23 09:27:01;;;;;;;7.60;6.90;;;;;;;4.21;100.00;102241.50;5084923;28;20209;-78
2022/01/23 09:29:32;;;;;;;16.67;15.07;;;;;;;4.21;100.00;102230.31;5084335;28;20590;-76
2022/01/23 09:31:59;;;;;;;12.77;11.53;;;;;;;4.24;100.00;102228.72;5084850;28;20196;-74
2022/01/23 09:34:29;;;;;;;6.57;5.97;;;;;;;4.24;100.00;102238.16;5085111;28;20204;-77
2022/01/23 09:36:57;;;;;;;7.23;6.53;;;;;;;4.24;100.00;102236.47;5084835;28;20200;-75
2022/01/23 09:39:25;;;;;;;9.10;8.20;;;;;;;4.24;100.00;102236.47;5082796;28;20228;-76
2022/01/23 09:42:00;;;;;;;8.30;7.50;;;;;;;4.29;100.00;102234.91;5084422;28;20236;-76
2022/01/23 09:44:28;;;;;;;16.20;14.27;;;;;;;4.25;100.00;102227.00;5084192;28;20614;-75
2022/01/23 09:46:57;;;;;;;18.13;15.13;;;;;;;4.37;100.00;102222.25;5084910;28;20209;-77
2022/01/23 09:49:30;;;;;;;23.77;20.33;;;;;;;4.33;100.00;102228.16;5083873;28;20242;-74
2022/01/23 09:52:00;;;;;;;9.00;7.73;;;;;;;4.36;100.00;102231.72;5084346;28;20740;-77
2022/01/23 09:54:30;;;;;;;14.20;11.50;;;;;;;4.40;100.00;102229.22;5084092;28;20262;-76
2022/01/23 09:57:00;;;;;;;8.67;7.87;;;;;;;4.40;100.00;102226.66;5084408;28;20250;-76
2022/01/23 09:59:28;;;;;;;11.77;8.83;;;;;;;4.44;100.00;102226.84;5083788;28;20219;-77
2022/01/23 10:01:56;;;;;;;12.40;7.30;;;;;;;4.46;100.00;102226.88;5084267;28;20224;-76
2022/01/23 10:04:23;;;;;;;8.40;7.60;;;;;;;4.48;100.00;102233.88;5084017;28;20219;-76
2022/01/23 10:06:51;;;;;;;12.53;7.53;;;;;;;4.57;100.00;102234.16;5084425;28;20269;-75
2022/01/23 10:09:19;;;;;;;9.20;7.33;;;;;;;4.68;100.00;102231.97;5084183;28;20385;-77
2022/01/23 10:11:47;;;;;;;7.43;6.63;;;;;;;4.76;100.00;102240.00;5083910;28;20234;-76
2022/01/23 10:14:13;;;;;;;7.20;6.50;;;;;;;4.80;100.00;102238.38;5084898;28;20694;-77
2022/01/23 10:16:40;;;;;;;11.53;9.00;;;;;;;4.71;100.00;102239.81;5084513;28;20567;-76
2022/01/23 10:19:08;;;;;;;10.27;9.30;;;;;;;4.78;100.00;102240.94;5083712;28;20296;-76
2022/01/23 10:21:36;;;;;;;11.13;6.83;;;;;;;4.88;100.00;102236.94;5083319;28;20558;-77
2022/01/23 10:24:04;;;;;;;9.67;7.17;;;;;;;4.93;100.00;102246.59;5083389;28;20265;-76
2022/01/23 10:26:45;;;;;;;8.37;6.83;;;;;;;4.95;100.00;102246.66;5084064;28;20235;-76
2022/01/23 10:29:18;;;;;;;7.07;6.40;;;;;;;4.97;100.00;102248.47;5083686;28;20235;-74
2022/01/23 10:32:06;;;;;;;9.80;7.60;;;;;;;5.00;100.00;102252.00;5083294;28;20451;-76
2022/01/23 10:34:44;;;;;;;7.80;6.90;;;;;;;5.04;100.00;102249.56;5083839;28;20199;-75
2022/01/23 10:37:11;;;;;;;8.03;6.30;;;;;;;5.06;100.00;102263.44;5084016;28;20257;-75
2022/01/23 10:39:42;;;;;;;7.20;6.50;;;;;;;5.12;100.00;102260.16;5083452;28;20236;-76
2022/01/23 10:42:49;;;;;;;9.23;7.90;;;;;;;5.11;100.00;102274.81;5082445;28;20227;-76
2022/01/23 10:48:35;;;;;;;9.40;6.83;;;;;;;5.26;100.00;102292.56;5083819;28;20264;-76
2022/01/23 10:51:24;;;;;;;6.27;5.63;;;;;;;5.33;100.00;102288.44;5082353;28;20291;-75
2022/01/23 10:54:05;;;;;;;7.70;6.93;;;;;;;5.21;100.00;102306.16;5083840;28;20207;-77
2022/01/23 10:56:38;;;;;;;7.23;6.53;;;;;;;5.14;100.00;102311.16;5084087;28;20295;-75
2022/01/23 10:59:07;;;;;;;8.93;6.90;;;;;;;5.22;100.00;102313.13;5084177;28;20228;-75
2022/01/23 11:01:34;;;;;;;7.57;6.77;;;;;;;5.19;100.00;102324.22;5083788;28;20291;-77
2022/01/23 11:04:09;;;;;;;7.60;6.80;;;;;;;5.21;100.00;102320.00;5083645;28;20227;-75
2022/01/23 11:06:52;;;;;;;8.00;6.97;;;;;;;5.21;100.00;102334.66;5083448;28;20579;-76
2022/01/23 11:09:19;;;;;;;7.03;6.40;;;;;;;5.19;100.00;102337.19;5083113;28;20300;-75
2022/01/23 11:11:49;;;;;;;7.97;7.27;;;;;;;5.18;100.00;102333.72;5083082;28;20253;-75
2022/01/23 11:19:46;;;;;;;7.43;6.83;;;;;;;5.26;100.00;102333.09;5082629;28;20238;-75
2022/01/23 11:22:17;;;;;;;8.47;6.20;;;;;;;5.30;100.00;102333.25;5083216;28;20220;-77
2022/01/23 11:24:45;;;;;;;7.10;6.50;;;;;;;5.25;100.00;102341.69;5082431;28;20294;-78
2022/01/23 11:27:14;;;;;;;7.30;6.60;;;;;;;5.23;100.00;102336.44;5082885;28;20208;-75
2022/01/23 11:29:57;;;;;;;9.93;7.20;;;;;;;5.24;100.00;102337.34;5082630;28;20625;-77
2022/01/23 11:32:26;;;;;;;7.40;6.70;;;;;;;5.29;100.00;102346.13;5083150;28;20200;-76
2022/01/23 11:35:03;;;;;;;7.13;6.43;;;;;;;5.25;100.00;102344.28;5083255;28;20214;-74
2022/01/23 11:37:30;;;;;;;7.90;7.20;;;;;;;5.29;100.00;102351.31;5082929;28;20196;-75
2022/01/23 11:40:02;;;;;;;7.37;6.37;;;;;;;5.41;100.00;102350.84;5082436;28;20224;-77
2022/01/23 11:50:49;;;;;;;7.90;7.20;;;;;;;5.30;100.00;102348.78;5082382;28;20208;-75
2022/01/23 11:53:47;;;;;;;7.83;7.13;;;;;;;5.39;100.00;102343.03;5083126;28;20213;-76
2022/01/23 11:56:43;;;;;;;7.30;6.60;;;;;;;5.38;100.00;102347.31;5082615;28;20808;-76
2022/01/23 11:59:23;;;;;;;7.60;6.80;;;;;;;5.37;100.00;102345.59;5068911;28;20227;-76
2022/01/23 12:02:10;;;;;;;8.33;7.60;;;;;;;5.42;100.00;102344.84;5082092;28;20231;-76
2022/01/23 12:04:36;;;;;;;7.30;6.60;;;;;;;5.47;100.00;102343.28;5082502;28;20231;-76
2022/01/23 12:07:20;;;;;;;9.37;7.30;;;;;;;5.45;100.00;102350.13;5082853;28;20243;-75
2022/01/23 12:10:16;;;;;;;7.83;7.13;;;;;;;5.46;100.00;102349.31;5082109;28;20338;-77
2022/01/23 12:12:46;;;;;;;10.20;7.87;;;;;;;5.44;100.00;102341.47;5082309;28;20198;-78
2022/01/23 12:18:13;;;;;;;8.67;7.87;;;;;;;5.46;100.00;102338.94;5082592;28;20215;-76
2022/01/23 12:20:40;;;;;;;9.03;8.23;;;;;;;5.32;100.00;102328.13;5081822;28;20577;-76
2022/01/23 12:23:07;;;;;;;9.17;8.23;;;;;;;5.26;100.00;102314.97;5081704;28;20229;-75
2022/01/23 12:25:42;;;;;;;9.23;8.40;;;;;;;5.28;100.00;102300.38;5082605;28;20218;-78
2022/01/23 12:28:11;;;;;;;9.17;8.37;;;;;;;5.29;100.00;102292.66;5082668;28;20683;-75
2022/01/23 12:30:41;;;;;;;9.77;8.87;;;;;;;5.44;100.00;102296.56;5082139;28;20201;-76
2022/01/23 12:33:21;;;;;;;9.87;8.97;;;;;;;5.54;100.00;102294.31;5082337;28;20204;-76
2022/01/23 12:35:50;;;;;;;9.20;7.60;;;;;;;5.54;100.00;102294.31;5082284;28;20215;-75
2022/01/23 12:38:17;;;;;;;8.17;7.47;;;;;;;5.45;100.00;102299.22;5082371;28;20200;-78
2022/01/23 12:40:46;;;;;;;8.33;7.67;;;;;;;5.61;100.00;102302.28;5081885;28;20262;-77
2022/01/23 12:43:16;;;;;;;12.77;8.80;;;;;;;5.55;100.00;102311.63;5082430;28;20246;-77
2022/01/23 12:45:53;;;;;;;8.03;7.40;;;;;;;5.61;100.00;102312.63;5082118;28;20204;-78
2022/01/23 12:48:48;;;;;;;7.73;6.60;;;;;;;5.56;100.00;102313.38;5082279;28;20226;-75
2022/01/23 12:51:38;;;;;;;7.17;6.60;;;;;;;5.68;100.00;102322.38;5076162;28;20289;-76
2022/01/23 12:54:31;;;;;;;7.07;6.43;;;;;;;5.63;100.00;102319.66;5082005;28;20737;-75
2022/01/23 12:57:06;;;;;;;7.20;6.53;;;;;;;5.46;100.00;102318.22;5078960;28;20210;-75
2022/01/23 12:59:34;;;;;;;6.70;6.10;;;;;;;5.49;100.00;102316.63;5081712;28;20244;-76
2022/01/23 13:02:07;;;;;;;6.57;5.97;;;;;;;5.60;100.00;102313.47;5082222;28;20666;-76
2022/01/23 13:04:37;;;;;;;7.27;6.67;;;;;;;5.51;100.00;102306.28;5081943;28;20227;-78
2022/01/23 13:07:14;;;;;;;7.67;6.97;;;;;;;5.48;100.00;102307.06;5082237;28;20200;-77
2022/01/23 13:09:48;;;;;;;6.50;5.90;;;;;;;5.50;100.00;102297.63;5081378;28;20301;-76
2022/01/23 13:12:30;;;;;;;6.03;5.60;;;;;;;5.56;100.00;102302.13;5081888;28;20211;-77
2022/01/23 13:15:14;;;;;;;6.47;5.93;;;;;;;5.50;100.00;102296.78;5085546;28;20204;-76
2022/01/23 13:17:54;;;;;;;6.77;6.17;;;;;;;5.43;100.00;102295.72;5085648;28;20227;-75
2022/01/23 13:29:52;;;;;;;7.03;6.43;;;;;;;5.43;100.00;102297.38;5085051;28;20271;-76
2022/01/23 13:32:01;;;;;;;8.07;7.23;;;;;;;5.52;100.00;102295.09;5084497;28;20208;-76
2022/01/23 13:34:32;;;;;;;6.80;6.20;;;;;;;5.54;100.00;102304.69;5085310;28;20295;-76
2022/01/23 13:37:01;;;;;;;7.33;6.10;;;;;;;5.52;100.00;102308.94;5085154;28;20210;-75
2022/01/23 13:39:32;;;;;;;6.80;6.20;;;;;;;5.51;100.00;102308.88;5083988;28;20223;-75
2022/01/23 13:42:10;;;;;;;6.00;5.40;;;;;;;5.63;100.00;102313.56;5084913;28;20651;-75
2022/01/23 13:53:24;;;;;;;6.07;5.57;;;;;;;5.70;100.00;102331.06;5084120;28;20294;-76
2022/01/23 13:58:38;;;;;;;6.17;5.67;;;;;;;5.70;100.00;102321.59;5084830;28;20253;-77
2022/01/23 14:01:29;;;;;;;5.53;5.13;;;;;;;5.72;100.00;102326.81;5084450;28;20200;-77
2022/01/23 14:03:56;;;;;;;5.60;5.20;;;;;;;5.81;100.00;102331.41;5084279;28;20591;-77
2022/01/23 14:06:25;;;;;;;6.10;5.57;;;;;;;5.77;100.00;102323.53;5084428;28;20743;-77
2022/01/23 14:09:04;;;;;;;5.53;5.13;;;;;;;5.66;100.00;102332.69;5084597;28;20315;-77
2022/01/23 14:11:31;;;;;;;5.93;5.43;;;;;;;5.68;100.00;102331.03;5084223;28;20205;-78
2022/01/23 14:14:09;;;;;;;8.83;5.50;;;;;;;5.64;100.00;102336.94;5084614;28;20196;-75